Главная страница
METAR-TAF:

METAR-TAF

Аэропорты :

Ниагара-Фолс, Нью-Йорк, США

широта: 43-06-26N, долгота: 078-56-43W, высота над уровнем моря: 180 м

Текущие метеонаблюдения

Эта сводка был подготовлена 58 минут назад, в 05:53 UTC
Ветер 8 Узел от восточный
Температура -6°C
Влажность 62%
Давление 1028 hPa
Видимость: 16.1 км
ясное небо

METAR: KIAG 170553Z AUTO 10008KT 10SM CLR M06/M12 A3035 RMK AO2 SLP294 T10561117 11044 21061 56027 $

Время: 01:51 (06:51 UTC)

Прогноз

Эта сводка был подготовлена 1 час и 23 минут назад, в 05:28 UTC
Прогноз действительный с 17-го 06 UTC до 18-го 06 UTC
Ветер 6 Узел от восточно-юго-восточный
Видимость: 10 км
небольшая облачность на высоте 10000 фута
Отдельные облака на высоте 25000 фута
С 17-го 1400 UTC
Ветер 6 Узел от юго-восточный
Видимость: 10 км
ясное небо
С 18-го 0400 UTC
Ветер 6 Узел от юго-юго-восточный
Видимость: 10 км
Отдельные облака на высоте 25000 фута

TAF: KIAG 170528Z 1706/1806 11006KT P6SM FEW100 SCT250 FM171400 13006KT P6SM SKC FM180400 15006KT P6SM SCT250

Метеонаблюдения и прогнозы для более 4000 аэропортов (сводки METAR и TAF).

Имеющиеся станции представлены на карте желтыми и красными точками.

Чтобы увидеть название станции, наведите на нее мышь.

Затем щелкните, чтобы увидеть метеонаблюдения и метеопрогнозы.

Управление картой: чтобы увеличить масштаб, щелкните зеленые кнопки с черным крестиком; чтобы уменьшить масштаб, щелкните зеленую кнопку с тире; для просмотра соседних карт щелкайте зеленые стрелки.


METAR-TAF: